Flight Track Log - Related Links

Times and Time Zones

All times are in EDT time to prevent confusion due to time zone crossing. See the PDC2808 flight status page for this flight to view local times or setup timezone preferences in your user account.

Time Position Orientation Groundspeed Altitude Reporting Facility
EDT Latitude Longitude Course Direction KTS MPH feet Rate Location/Type
Fri 05:16:00 AM 44.6782 129.1281 296° West  Level Estimated
Fri 05:17:00 AM 44.6974 129.0726 296° West  Level Estimated
Fri 05:18:00 AM 44.7166 129.0171 296° West  Level Estimated
Fri 05:19:00 AM 44.7357 128.9615 296° West  Level Estimated
Fri 05:20:00 AM 44.7548 128.9060 296° West  Level Estimated
Fri 05:21:00 AM 44.7739 128.8504 296° West  Level Estimated
Fri 05:22:00 AM 44.7930 128.7947 296° West  Level Estimated
Fri 05:23:00 AM 44.8121 128.7390 296° West  Level Estimated
Fri 05:24:00 AM 44.8311 128.6833 296° West  Level Estimated
Fri 05:25:00 AM 44.8501 128.6275 296° West  Level Estimated
Fri 05:26:00 AM 44.8690 128.5717 296° West  Level Estimated
Fri 05:27:00 AM 44.8880 128.5159 296° West  Level Estimated
Fri 05:28:00 AM 44.9069 128.4600 296° West  Level Estimated
Fri 05:29:00 AM 44.9258 128.4041 296° West  Level Estimated
Fri 05:30:00 AM 44.9446 128.3482 295° West  Level Estimated
Fri 05:31:00 AM 44.9635 128.2922 295° West  Level Estimated
Fri 05:32:00 AM 44.9823 128.2362 295° West  Level Estimated
Fri 05:33:00 AM 45.0010 128.1801 295° West  Level Estimated
Fri 05:34:00 AM 45.0198 128.1240 295° West  Level Estimated
Fri 05:35:00 AM 45.0385 128.0679 295° West  Level Estimated
Fri 05:36:00 AM 45.0572 128.0117 295° West  Level Estimated
Fri 05:37:00 AM 45.0758 127.9555 295° West  Level Estimated
Fri 05:38:00 AM 45.0945 127.8993 295° West  Level Estimated
Fri 05:39:00 AM 45.1131 127.8430 295° West  Level Estimated
Fri 05:40:00 AM 45.1317 127.7867 295° West  Level Estimated
Fri 05:41:00 AM 45.1502 127.7303 295° West  Level Estimated
Fri 05:42:00 AM 45.1687 127.6740 295° West  Level Estimated
Fri 05:43:00 AM 45.1872 127.6175 295° West  Level Estimated
Fri 05:44:00 AM 45.2057 127.5611 295° West  Level Estimated
Fri 05:45:00 AM 45.2242 127.5046 295° West  Level Estimated
Fri 05:46:00 AM 45.2426 127.4481 295° West  Level Estimated
Fri 05:47:00 AM 45.2609 127.3915 295° West  Level Estimated
Fri 05:48:00 AM 45.2793 127.3349 295° West  Level Estimated
Fri 05:49:00 AM 45.2976 127.2782 295° West  Level Estimated
Fri 05:50:00 AM 45.3159 127.2215 295° West  Level Estimated
Fri 05:51:00 AM 45.3342 127.1648 295° West  Level Estimated
Fri 05:52:00 AM 45.3525 127.1081 295° West  Level Estimated
Fri 05:53:00 AM 45.3707 127.0513 295° West  Level Estimated
Fri 05:54:00 AM 45.3889 126.9945 295° West  Level Estimated
Fri 05:55:00 AM 45.4070 126.9376 294° West  Level Estimated
Fri 05:56:00 AM 45.4252 126.8807 294° West  Level Estimated
Fri 05:57:00 AM 45.4433 126.8238 294° West  Level Estimated
Fri 05:58:00 AM 45.4613 126.7668 294° West  Level Estimated
Fri 05:59:00 AM 45.4794 126.7098 294° West  Level Estimated
Fri 06:00:00 AM 45.4974 126.6528 294° West  Level Estimated
Fri 06:01:00 AM 45.5154 126.5957 294° West  Level Estimated
Fri 06:02:00 AM 45.5334 126.5386 294° West  Level Estimated
Fri 06:03:00 AM 45.5513 126.4814 294° West  Level Estimated
Fri 06:04:00 AM 45.5692 126.4242 294° West  Level Estimated
Fri 06:05:00 AM 45.5871 126.3670 294° West  Level Estimated
Fri 06:06:00 AM 45.6049 126.3097 294° West  Level Estimated
Fri 06:07:00 AM 45.6227 126.2524 294° West  Level Estimated
Fri 06:08:00 AM 45.6234 126.2503 294° West  Level Estimated
Fri 06:09:00 AM 45.6234 126.2503 335° Northwest  Level Estimated
Fri 06:10:00 AM 45.6234 126.2503 335° Northwest  Level Estimated
Fri 06:11:00 AM 45.6234 126.2503 335° Northwest  Level Estimated
Fri 06:12:00 AM 45.6234 126.2503 335° Northwest  Level Estimated
Fri 06:13:00 AM 45.6234 126.2503 335° Northwest  Level Estimated
Fri 06:14:00 AM 45.6234 126.2503 335° Northwest  Level Estimated
Fri 06:15:00 AM 45.6234 126.2503 335° Northwest  Level Estimated
Fri 06:16:00 AM 45.6234 126.2503 335° Northwest  Level Estimated
Fri 06:17:00 AM 45.6234 126.2503 335° Northwest  Level Estimated
Fri 06:18:00 AM 45.6234 126.2503 335° Northwest  Level Estimated
Fri 06:19:00 AM 45.6234 126.2503 335° Northwest  Level Estimated
Fri 06:20:00 AM 45.6234 126.2503 335° Northwest  Level Estimated
Fri 06:21:00 AM 45.6234 126.2503 335° Northwest  Level Estimated

Login

Don't have an account? Register now (free) for customized features, flight alerts, and more!